Consulta los datos en tiempo real de la estación meteorológica de Montseny - Vallcàrquera
| Hora UTC | 14:20 |
|---|---|
| Temperatura | 22.2 ºC |
| Humedad | 45.0 % |
| Pluja | 0.3 mm |
| Velocidad viento | 3.5 km/h |
| Dirección viento | SSW |
| Radiación solar | 271.9 W/m² |
| Temperatura (ºC) | Humedad (%) | Velocidad viento (km/h) | Precipitación (mm) | Radiación solar (W/m²) | ||||||||||||
|---|---|---|---|---|---|---|---|---|---|---|---|---|---|---|---|---|
| Hora UTC | Aire | Humedad | Vel. | Dir. | Vel. Max | Dir. | Intent. máx 5 min. | Rad. Sol. | ||||||||
| 00:05 | 11.2 | 97.5 | 0.0 | NNE | 0.0 | ESE | 0.0 | 0.0 | ||||||||
| 00:10 | 11.2 | 97.5 | 0.0 | NNE | 0.0 | WSW | 0.0 | 0.0 | ||||||||
| 00:15 | 11.1 | 97.4 | 0.3 | N | 2.1 | NW | 0.0 | 0.0 | ||||||||
| 00:20 | 11.0 | 97.3 | 1.6 | ENE | 2.8 | ENE | 0.0 | 0.0 | ||||||||
| 00:25 | 10.9 | 97.3 | 0.8 | NNE | 2.1 | NNE | 0.0 | 0.0 | ||||||||
| 00:30 | 10.7 | 97.3 | 1.0 | NNE | 2.1 | N | 0.0 | 0.0 | ||||||||
| 00:35 | 10.5 | 97.1 | 2.2 | NE | 5.3 | ENE | 0.0 | 0.0 | ||||||||
| 00:40 | 10.4 | 97.3 | 3.0 | ENE | 4.6 | ENE | 0.1 | 0.0 | ||||||||
| 00:45 | 10.3 | 97.1 | 2.4 | ENE | 4.2 | ENE | 0.0 | 0.0 | ||||||||
| 00:50 | 10.1 | 97.2 | 2.7 | ENE | 4.2 | ENE | 0.0 | 0.0 | ||||||||
| 00:55 | 10.1 | 97.2 | 1.3 | NE | 2.5 | NE | 0.0 | 0.0 | ||||||||
| 01:00 | 9.9 | 97.1 | 0.7 | ENE | 2.8 | ENE | 0.0 | 0.0 | ||||||||
| 01:05 | 9.7 | 96.9 | 0.4 | ENE | 2.5 | E | 0.0 | 0.0 | ||||||||
| 01:10 | 9.7 | 97.1 | 1.2 | NNE | 2.5 | NNE | 0.0 | 0.0 | ||||||||
| 01:15 | 9.5 | 97.0 | 1.1 | ENE | 2.5 | ENE | 0.0 | 0.0 | ||||||||
| 01:20 | 9.4 | 97.1 | 0.7 | NE | 2.1 | ENE | 0.0 | 0.0 | ||||||||
| 01:25 | 9.4 | 97.3 | 1.1 | NNE | 2.5 | ENE | 0.0 | 0.0 | ||||||||
| 01:30 | 9.3 | 97.1 | 1.3 | NNE | 2.5 | ENE | 0.0 | 0.0 | ||||||||
| 01:35 | 9.3 | 97.5 | 2.1 | NE | 4.6 | ENE | 0.0 | 0.0 | ||||||||
| 01:40 | 9.4 | 97.5 | 1.4 | NE | 2.8 | NE | 0.0 | 0.0 | ||||||||
| 01:45 | 9.3 | 97.4 | 0.7 | NE | 2.5 | ENE | 0.0 | 0.0 | ||||||||
| 01:50 | 9.3 | 97.4 | 1.1 | NE | 2.8 | NE | 0.0 | 0.0 | ||||||||
| 01:55 | 9.4 | 97.6 | 1.0 | NE | 2.5 | NE | 0.0 | 0.0 | ||||||||
| 02:00 | 9.3 | 97.4 | 0.5 | NNE | 2.1 | NE | 0.0 | 0.0 | ||||||||
| 02:05 | 9.2 | 97.4 | 1.3 | NE | 4.6 | ENE | 0.0 | 0.0 | ||||||||
| 02:10 | 9.2 | 97.6 | 2.0 | NE | 3.9 | ENE | 0.0 | 0.0 | ||||||||
| 02:15 | 9.3 | 97.6 | 0.7 | NE | 2.8 | NE | 0.0 | 0.0 | ||||||||
| 02:20 | 9.2 | 97.4 | 1.2 | NE | 2.8 | ENE | 0.0 | 0.0 | ||||||||
| 02:25 | 9.0 | 97.4 | 2.4 | NE | 5.6 | ENE | 0.0 | 0.0 | ||||||||
| 02:30 | 9.2 | 97.6 | 1.4 | NE | 3.5 | NE | 0.0 | 0.0 | ||||||||
| 02:35 | 9.2 | 97.6 | 2.3 | NE | 4.9 | ENE | 0.0 | 0.0 | ||||||||
| 02:40 | 9.2 | 97.5 | 3.4 | ENE | 4.9 | E | 0.0 | 0.0 | ||||||||
| 02:45 | 9.2 | 97.5 | 3.0 | NE | 5.6 | ENE | 0.0 | 0.0 | ||||||||
| 02:50 | 9.2 | 97.4 | 1.6 | NE | 2.5 | N | 0.0 | 0.0 | ||||||||
| 02:55 | 9.1 | 97.4 | 2.6 | NE | 4.6 | NNE | 0.0 | 0.0 | ||||||||
| 03:00 | 9.2 | 97.5 | 1.4 | NE | 2.5 | NNW | 0.0 | 0.0 | ||||||||
| 03:05 | 9.1 | 97.5 | 2.1 | NE | 3.9 | NNE | 0.0 | 0.0 | ||||||||
| 03:10 | 9.1 | 97.5 | 1.5 | NNE | 2.8 | ENE | 0.0 | 0.0 | ||||||||
| 03:15 | 9.1 | 97.6 | 1.8 | NE | 3.2 | N | 0.0 | 0.0 | ||||||||
| 03:20 | 9.1 | 97.4 | 2.0 | ENE | 4.6 | E | 0.1 | 0.0 | ||||||||
| 03:25 | 9.0 | 97.5 | 2.1 | NE | 4.2 | ENE | 0.0 | 0.0 | ||||||||
| 03:30 | 8.9 | 97.4 | 2.6 | NE | 4.9 | ENE | 0.0 | 0.0 | ||||||||
| 03:35 | 9.0 | 97.5 | 1.8 | NE | 3.9 | ENE | 0.0 | 0.0 | ||||||||
| 03:40 | 8.9 | 97.5 | 1.7 | NNE | 3.2 | NE | 0.0 | 0.0 | ||||||||
| 03:45 | 8.9 | 97.4 | 1.3 | NE | 3.2 | NE | 0.0 | 0.0 | ||||||||
| 03:50 | 8.8 | 97.4 | 2.1 | NNE | 4.2 | ENE | 0.0 | 0.0 | ||||||||
| 03:55 | 8.7 | 97.4 | 1.4 | ENE | 3.2 | ENE | 0.0 | 0.0 | ||||||||
| 04:00 | 8.6 | 97.2 | 1.1 | NNE | 2.8 | ENE | 0.0 | 0.0 | ||||||||
| 04:05 | 8.5 | 97.5 | 2.7 | NE | 5.6 | ENE | 0.0 | 0.0 | ||||||||
| 04:10 | 8.7 | 97.7 | 2.4 | NE | 4.2 | ENE | 0.0 | 0.0 | ||||||||
| 04:15 | 8.6 | 97.4 | 2.1 | NE | 4.6 | E | 0.0 | 0.0 | ||||||||
| 04:20 | 8.5 | 97.5 | 1.7 | ENE | 3.5 | ENE | 0.0 | 0.0 | ||||||||
| 04:25 | 8.5 | 97.5 | 1.8 | NE | 4.6 | ENE | 0.0 | 0.0 | ||||||||
| 04:30 | 8.5 | 97.5 | 0.9 | NNE | 3.2 | NE | 0.0 | 0.0 | ||||||||
| 04:35 | 8.4 | 97.4 | 1.4 | ENE | 4.9 | ENE | 0.0 | 0.2 | ||||||||
| 04:40 | 8.6 | 97.7 | 2.0 | NE | 5.3 | ENE | 0.0 | 2.3 | ||||||||
| 04:45 | 8.4 | 97.4 | 1.7 | ENE | 3.5 | ENE | 0.0 | 3.4 | ||||||||
| 04:50 | 8.4 | 97.6 | 1.5 | NNE | 3.5 | NE | 0.0 | 5.8 | ||||||||
| 04:55 | 8.5 | 97.7 | 1.8 | ENE | 4.2 | E | 0.0 | 7.7 | ||||||||
| 05:00 | 8.5 | 97.7 | 1.1 | ENE | 2.8 | ENE | 0.0 | 9.4 | ||||||||
| 05:05 | 8.5 | 97.6 | 1.6 | ENE | 4.2 | NE | 0.0 | 11.4 | ||||||||
| 05:10 | 8.6 | 97.8 | 1.9 | N | 3.2 | N | 0.0 | 14.2 | ||||||||
| 05:15 | 8.7 | 97.8 | 2.0 | NNE | 3.2 | ENE | 0.0 | 16.1 | ||||||||
| 05:20 | 8.8 | 97.8 | 2.0 | NNE | 4.2 | NE | 0.0 | 17.7 | ||||||||
| 05:25 | 8.8 | 97.7 | 0.7 | NNE | 2.8 | N | 0.0 | 19.0 | ||||||||
| 05:30 | 8.7 | 97.5 | 0.0 | NNE | 0.0 | NE | 0.0 | 20.1 | ||||||||
| 05:35 | 8.7 | 97.6 | 1.3 | NE | 2.8 | ENE | 0.0 | 22.1 | ||||||||
| 05:40 | 8.8 | 97.7 | 0.8 | NE | 2.5 | ENE | 0.0 | 24.0 | ||||||||
| 05:45 | 8.8 | 97.7 | 0.9 | NNE | 3.2 | ENE | 0.0 | 25.5 | ||||||||
| 05:50 | 8.9 | 97.9 | 1.4 | NNE | 3.9 | N | 0.0 | 27.7 | ||||||||
| 05:55 | 8.9 | 97.7 | 0.6 | NNE | 1.8 | NE | 0.0 | 28.7 | ||||||||
| 06:00 | 9.0 | 97.9 | 2.0 | ENE | 5.3 | ENE | 0.0 | 121.3 | ||||||||
| 06:05 | 9.6 | 98.2 | 2.4 | ENE | 4.6 | E | 0.1 | 190.0 | ||||||||
| 06:10 | 9.8 | 97.7 | 3.3 | ENE | 4.9 | ENE | 0.0 | 211.9 | ||||||||
| 06:15 | 10.2 | 97.2 | 2.5 | NE | 4.9 | NE | 0.0 | 232.5 | ||||||||
| 06:20 | 10.6 | 95.6 | 2.2 | ENE | 5.3 | E | 0.0 | 254.3 | ||||||||
| 06:25 | 11.0 | 93.4 | 2.2 | ENE | 5.3 | E | 0.0 | 278.2 | ||||||||
| 06:30 | 11.3 | 91.6 | 3.1 | ENE | 6.0 | ENE | 0.0 | 300.9 | ||||||||
| 06:35 | 11.5 | 90.7 | 3.3 | ENE | 5.3 | ENE | 0.0 | 320.4 | ||||||||
| 06:40 | 11.9 | 90.5 | 2.5 | ENE | 6.0 | ENE | 0.0 | 338.1 | ||||||||
| 06:45 | 12.2 | 89.2 | 2.1 | NE | 4.9 | E | 0.0 | 346.5 | ||||||||
| 06:50 | 12.6 | 89.2 | 2.2 | E | 5.3 | ENE | 0.0 | 353.2 | ||||||||
| 06:55 | 13.2 | 87.9 | 1.5 | ENE | 5.3 | ESE | 0.0 | 388.1 | ||||||||
| 07:00 | 13.5 | 85.8 | 2.6 | ENE | 6.0 | E | 0.0 | 405.9 | ||||||||
| 07:05 | 13.7 | 88.9 | 1.2 | SSE | 5.6 | ENE | 0.0 | 422.3 | ||||||||
| 07:10 | 14.5 | 86.0 | 1.2 | ESE | 3.2 | ESE | 0.0 | 435.2 | ||||||||
| 07:15 | 14.9 | 81.3 | 0.5 | S | 3.5 | WSW | 0.0 | 447.4 | ||||||||
| 07:20 | 14.8 | 84.0 | 1.8 | S | 6.0 | S | 0.0 | 466.8 | ||||||||
| 07:25 | 15.4 | 84.3 | 1.3 | S | 4.2 | NE | 0.0 | 484.9 | ||||||||
| 07:30 | 15.6 | 81.1 | 1.1 | SSW | 4.9 | SSE | 0.0 | 502.7 | ||||||||
| 07:35 | 15.7 | 79.5 | 1.7 | SSW | 4.6 | SSW | 0.0 | 519.4 | ||||||||
| 07:40 | 15.6 | 79.9 | 1.9 | SSW | 6.7 | S | 0.0 | 535.3 | ||||||||
| 07:45 | 15.5 | 76.9 | 3.0 | SSW | 8.1 | SSW | 0.0 | 552.7 | ||||||||
| 07:50 | 15.5 | 76.6 | 3.1 | SSW | 7.4 | SSW | 0.0 | 570.3 | ||||||||
| 07:55 | 15.6 | 76.7 | 3.3 | SSW | 9.2 | SSW | 0.0 | 586.9 | ||||||||
| 08:00 | 15.8 | 77.0 | 2.8 | SSW | 8.5 | S | 0.0 | 601.5 | ||||||||
| 08:05 | 16.0 | 75.8 | 3.7 | SW | 8.1 | SSW | 0.0 | 616.5 | ||||||||
| 08:10 | 16.1 | 73.4 | 2.9 | SW | 7.8 | S | 0.0 | 631.0 | ||||||||
| 08:15 | 16.5 | 72.0 | 2.8 | SW | 10.6 | SSW | 0.0 | 644.5 | ||||||||
| 08:20 | 16.9 | 71.3 | 2.9 | SSW | 5.6 | S | 0.0 | 658.2 | ||||||||
| 08:25 | 17.0 | 70.3 | 2.7 | SSW | 7.4 | SW | 0.0 | 671.7 | ||||||||
| 08:30 | 17.2 | 68.7 | 2.5 | S | 5.3 | S | 0.0 | 684.8 | ||||||||
| 08:35 | 17.4 | 71.3 | 3.9 | SSW | 8.1 | SSW | 0.0 | 699.2 | ||||||||
| 08:40 | 17.5 | 69.5 | 3.2 | SSW | 8.5 | S | 0.0 | 713.0 | ||||||||
| 08:45 | 17.9 | 69.8 | 2.7 | S | 6.4 | SW | 0.0 | 727.2 | ||||||||
| 08:50 | 18.3 | 66.5 | 3.4 | SSW | 9.5 | SSW | 0.0 | 745.3 | ||||||||
| 08:55 | 18.0 | 67.0 | 5.2 | SSW | 10.9 | S | 0.0 | 759.9 | ||||||||
| 09:00 | 18.0 | 68.3 | 3.8 | SSW | 7.4 | SSW | 0.0 | 777.4 | ||||||||
| 09:05 | 18.4 | 67.6 | 4.0 | SW | 10.2 | SSW | 0.0 | 780.0 | ||||||||
| 09:10 | 18.5 | 63.1 | 1.8 | SSW | 5.3 | WSW | 0.0 | 804.0 | ||||||||
| 09:15 | 18.6 | 62.8 | 3.0 | SSW | 6.4 | SSW | 0.0 | 814.0 | ||||||||
| 09:20 | 18.2 | 67.4 | 4.0 | SW | 8.5 | S | 0.0 | 454.9 | ||||||||
| 09:25 | 17.8 | 68.1 | 4.4 | SW | 8.8 | WSW | 0.0 | 808.0 | ||||||||
| 09:30 | 17.9 | 67.5 | 3.2 | SW | 9.9 | SW | 0.0 | 661.9 | ||||||||
| 09:35 | 18.6 | 68.1 | 2.1 | SW | 9.2 | S | 0.0 | 821.0 | ||||||||
| 09:45 | 19.0 | 61.2 | 4.5 | SW | 13.8 | SW | 0.0 | 866.0 | ||||||||
| 09:50 | 18.9 | 63.0 | 3.5 | SW | 8.8 | W | 0.0 | 399.1 | ||||||||
| 09:55 | 18.7 | 62.8 | 4.9 | SW | 11.6 | SSW | 0.0 | 764.3 | ||||||||
| 10:00 | 19.0 | 58.7 | 4.0 | SSW | 9.5 | SW | 0.0 | 872.0 | ||||||||
| 10:05 | 19.3 | 59.0 | 4.1 | SSW | 12.0 | SW | 0.0 | 924.0 | ||||||||
| 10:10 | 19.6 | 58.3 | 4.9 | SSW | 13.4 | S | 0.0 | 645.2 | ||||||||
| 10:15 | 19.3 | 58.7 | 4.6 | SSW | 10.9 | SSW | 0.0 | 590.7 | ||||||||
| 10:20 | 18.9 | 59.9 | 2.6 | SSW | 8.8 | SSW | 0.0 | 236.5 | ||||||||
| 10:25 | 18.3 | 62.9 | 2.7 | S | 9.2 | SSW | 0.0 | 255.8 | ||||||||
| 10:30 | 18.3 | 62.7 | 1.3 | SE | 5.3 | ENE | 0.0 | 560.7 | ||||||||
| 10:40 | 19.0 | 55.8 | 5.2 | SSW | 11.6 | SSW | 0.0 | 347.7 | ||||||||
| 10:45 | 18.8 | 55.9 | 2.5 | SSW | 7.1 | W | 0.0 | 527.4 | ||||||||
| 10:55 | 19.1 | 57.5 | 2.6 | S | 12.4 | S | 0.0 | 791.6 | ||||||||
| 11:10 | 19.9 | 52.1 | 6.6 | SSW | 22.2 | SSW | 0.0 | 760.3 | ||||||||
| 11:15 | 20.5 | 50.5 | 7.5 | SW | 20.5 | S | 0.0 | 866.0 | ||||||||
| 11:20 | 20.1 | 50.8 | 3.8 | SSW | 11.3 | SSW | 0.0 | 240.1 | ||||||||
| 11:25 | 19.9 | 54.0 | 4.5 | SSW | 13.4 | SW | 0.0 | 946.0 | ||||||||
| 11:30 | 20.9 | 51.5 | 5.9 | SSW | 14.1 | SW | 0.0 | 562.3 | ||||||||
| 11:35 | 20.4 | 50.9 | 4.4 | SSW | 14.5 | S | 0.0 | 796.8 | ||||||||
| 11:40 | 20.2 | 49.7 | 4.0 | SW | 11.3 | SSW | 0.0 | 311.1 | ||||||||
| 11:45 | 19.7 | 51.7 | 3.3 | SSW | 9.9 | SSW | 0.0 | 332.1 | ||||||||
| 11:50 | 19.4 | 52.6 | 5.0 | SW | 17.3 | S | 0.0 | 467.2 | ||||||||
| 11:55 | 20.0 | 53.0 | 2.7 | SSW | 9.2 | SSW | 0.0 | 400.3 | ||||||||
| 12:00 | 19.9 | 53.2 | 4.2 | SSW | 10.9 | SSW | 0.0 | 780.6 | ||||||||
| 12:10 | 21.0 | 50.4 | 7.8 | SSW | 18.7 | SSW | 0.0 | 513.0 | ||||||||
| 12:15 | 19.8 | 50.5 | 6.3 | SSW | 18.4 | SSW | 0.0 | 416.9 | ||||||||
| 12:20 | 20.0 | 46.8 | 6.0 | SSW | 15.5 | WSW | 0.0 | 948.0 | ||||||||
| 12:25 | 21.3 | 47.1 | 3.9 | SSW | 12.0 | SSW | 0.0 | 1094.0 | ||||||||
| 12:30 | 22.2 | 46.5 | 3.6 | S | 9.2 | SSW | 0.0 | 613.6 | ||||||||
| 12:35 | 21.1 | 45.3 | 4.2 | SW | 16.2 | WSW | 0.0 | 285.2 | ||||||||
| 12:40 | 20.6 | 49.2 | 4.3 | SSW | 14.5 | SSW | 0.0 | 712.1 | ||||||||
| 12:45 | 21.0 | 46.8 | 3.4 | SSW | 17.3 | SW | 0.0 | 408.4 | ||||||||
| 12:50 | 21.1 | 46.7 | 4.8 | SSW | 12.0 | S | 0.0 | 620.0 | ||||||||
| 12:55 | 21.0 | 44.8 | 5.0 | SW | 15.2 | S | 0.0 | 542.5 | ||||||||
| 13:00 | 20.5 | 46.7 | 4.6 | SSW | 16.6 | SW | 0.0 | 189.2 | ||||||||
| 13:05 | 19.7 | 48.9 | 5.5 | SSW | 22.9 | S | 0.0 | 205.1 | ||||||||
| 13:10 | 20.0 | 47.9 | 5.6 | SSW | 15.5 | SW | 0.0 | 914.0 | ||||||||
| 13:15 | 21.2 | 45.8 | 3.7 | SSW | 9.2 | SSW | 0.0 | 298.4 | ||||||||
| 13:20 | 21.0 | 47.9 | 5.2 | S | 14.5 | SSW | 0.0 | 695.5 | ||||||||
| 13:25 | 21.4 | 46.1 | 5.0 | SSW | 13.1 | SSW | 0.0 | 799.2 | ||||||||
| 13:30 | 22.0 | 41.8 | 6.8 | SSW | 19.1 | SSW | 0.0 | 694.9 | ||||||||
| 13:40 | 20.6 | 44.8 | 4.0 | SW | 10.2 | S | 0.0 | 383.2 | ||||||||
| 13:45 | 20.5 | 46.1 | 3.9 | SW | 12.7 | SSW | 0.0 | 177.4 | ||||||||
| 13:50 | 20.0 | 46.9 | 4.0 | SSW | 12.0 | S | 0.0 | 144.4 | ||||||||
| 13:55 | 19.7 | 46.5 | 4.6 | SSW | 16.6 | SW | 0.0 | 211.9 | ||||||||
| 14:00 | 19.8 | 46.0 | 5.0 | SW | 14.1 | SSW | 0.0 | 478.3 | ||||||||
| 14:05 | 21.1 | 43.9 | 4.8 | SW | 17.6 | SW | 0.0 | 970.0 | ||||||||
| 14:15 | 22.3 | 43.9 | 3.9 | WSW | 12.4 | N | 0.0 | 839.0 | ||||||||
| 14:20 | 22.2 | 45.0 | 3.5 | SSW | 10.9 | WSW | 0.0 | 271.9 | ||||||||
| Máxima | 22.3 | 98.2 | 7.8 | SSW | 22.9 | S | 0.1 | 1094.0 | ||||||||
| Mínima | 8.4 | 41.8 | ||||||||||||||
| Total | 0.3 | |||||||||||||||